Forest City, NC (28043)

12:39 PM EST on February 08, 2016 (GMT -0500)
Turner FRC-2 Site | | Change Station
CLOSE
Current Station
Personal Weather Station
Location: Forest City, NC
Elevation: 951 ft
Nearby Weather Stations

Elev 951 ft 35.31 °N, 81.83 °W | Updated 6 seconds ago

Overcast
Overcast
46.8 °F
Feels Like 44 °F
N
6.3
Wind Variable Wind from South

Today
High -- | Low -- °F
--% Chance of Precip.
Yesterday
High -- | Low -- °F
Precip. -- in
Pressure 29.70 in
Visibility 10.0 miles
Clouds Mostly Cloudy 5000 ft
Overcast 7000 ft
Windchill 44 °F
Dew Point 31 °F
Humidity 54%
Rainfall 0.00 in
Snow Depth Not available.
7:21 AM 6:02 PM
New Moon, 0% visible
METAR KFQD 081715Z AUTO 00000KT 10SM BKN050 OVC070 05/M02 A2970 RMK AO2 T00501021
Pressure 29.70 in
Visibility 10.0 miles
Clouds Mostly Cloudy 5000 ft
Overcast 7000 ft
Windchill 44 °F
Dew Point 31 °F
Humidity 54%
Rainfall 0.00 in
Snow Depth Not available.
7:21 AM 6:02 PM
New Moon, 0% visible
METAR KFQD 081715Z AUTO 00000KT 10SM BKN050 OVC070 05/M02 A2970 RMK AO2 T00501021

10-Day Weather Forecast

Almanac

Astronomy

Feb. 08, 2016 Rise Set
Actual Time
Civil Twilight
Nautical Twilight
Astronomical Twilight
Moon
Length of Visible Light
Length of Day
Tomorrow will be .
, % of the Moon is Illuminated

Today's Extremes

State Highs State Lows

Community

WunderPhotos

Upload Photos

1,891,473 photos uploaded!

WunderBlog® & News

Nearby

Air Quality

  Air Quality AQ Index Pollutant
Not available.

Snow Depth

Station Depth Elevation

Earthquake Activity

City Distance Mag. Time & Date
Minimum magnitude displayed is 2.5.

Coastal Water Temperatures

Place Temperature

Stations

Nearby Weather Stations

Station Location Temp. Windchill Dew Point Humidity Wind Precip. Elev Updated Type
                   

Watches & Warnings

There are currently no watches in effect.